< < Back
Terminal Aerodrome Forecast


Current Version              Previous Versions:   1  2  3  4  5  6  7  8  9  

Terminal Aerodrome Forecast

888
FTUS42 KJAX 232100 AAB
TAFJAX
TAF AMD
KJAX 232124Z 2321/2418 12008KT P6SM VCTS BKN040CB
      TEMPO 2321/2323 3SM TSRA OVC020CB
     FM240000 22004KT P6SM SCT250
     FM241400 25006KT P6SM SCT020 SCT250=



Latest METAR

975
SAUS80 KWBC 241300 RRA
MTRJAX
METAR KJAX 241256Z 27006KT 10SM FEW010 FEW250 27/24 A3003 RMK AO2 SLP170
CB DSNT SE T02670239


USA.gov is the U.S. government's official web portal to all federal, state and local government web resources and services.